createdAt,value
2017-05-28T00:01:08.439Z,14.00
2017-05-28T00:03:36.731Z,14.10
2017-05-28T00:06:05.070Z,14.10
2017-05-28T00:08:33.387Z,14.10
2017-05-28T00:11:01.754Z,14.10
2017-05-28T00:13:30.071Z,14.10
2017-05-28T00:15:58.386Z,14.00
2017-05-28T00:18:26.726Z,13.90
2017-05-28T00:20:55.042Z,13.70
2017-05-28T00:23:23.374Z,13.70
2017-05-28T00:25:51.697Z,13.70
2017-05-28T00:28:20.043Z,13.80
2017-05-28T00:30:48.358Z,13.80
2017-05-28T00:33:16.678Z,13.80
2017-05-28T00:35:45.013Z,13.90
2017-05-28T00:38:13.333Z,13.90
2017-05-28T00:40:41.669Z,13.80
2017-05-28T00:43:09.986Z,13.80
2017-05-28T00:45:38.338Z,13.80
2017-05-28T00:48:06.657Z,13.80
2017-05-28T00:50:34.969Z,13.80
2017-05-28T00:53:03.308Z,13.80
2017-05-28T00:55:31.630Z,13.70
2017-05-28T00:57:59.967Z,13.70
2017-05-28T01:00:28.286Z,13.70
2017-05-28T01:02:56.610Z,13.70
2017-05-28T01:05:24.951Z,13.60
2017-05-28T01:07:53.275Z,13.60
2017-05-28T01:10:21.619Z,13.60
2017-05-28T01:12:49.921Z,13.60
2017-05-28T01:15:18.236Z,13.70
2017-05-28T01:17:46.574Z,13.70
2017-05-28T01:20:14.898Z,13.50
2017-05-28T01:22:43.258Z,13.20
2017-05-28T01:25:11.553Z,12.80
2017-05-28T01:27:39.874Z,12.60
2017-05-28T01:30:08.210Z,12.60
2017-05-28T01:32:36.521Z,12.70
2017-05-28T01:35:04.862Z,12.80
2017-05-28T01:37:33.177Z,12.80
2017-05-28T01:40:01.541Z,12.70
2017-05-28T01:42:29.844Z,12.70
2017-05-28T01:44:58.163Z,12.70
2017-05-28T01:47:26.482Z,12.60
2017-05-28T01:49:54.807Z,12.50
2017-05-28T01:52:23.145Z,12.40
2017-05-28T01:54:51.470Z,12.40
2017-05-28T01:57:19.814Z,12.30
2017-05-28T01:59:48.147Z,12.30
2017-05-28T02:02:16.470Z,12.20
2017-05-28T02:04:44.808Z,12.10
2017-05-28T02:07:13.130Z,12.10
2017-05-28T02:09:41.463Z,12.10
2017-05-28T02:12:09.782Z,12.30
2017-05-28T02:14:38.146Z,12.40
2017-05-28T02:17:06.470Z,12.40
2017-05-28T02:19:34.790Z,12.40
2017-05-28T02:22:03.126Z,12.50
2017-05-28T02:24:31.443Z,12.40
2017-05-28T02:26:59.779Z,12.30
2017-05-28T02:29:28.085Z,12.40
2017-05-28T02:31:56.420Z,12.40
2017-05-28T02:34:24.738Z,12.50
2017-05-28T02:36:53.066Z,12.50
2017-05-28T02:39:21.395Z,12.50
2017-05-28T02:41:49.709Z,12.40
2017-05-28T02:44:18.031Z,12.20
2017-05-28T02:46:46.331Z,12.10
2017-05-28T02:49:14.672Z,12.10
2017-05-28T02:51:42.968Z,12.10
2017-05-28T02:54:11.267Z,11.90
2017-05-28T02:56:39.587Z,11.70
2017-05-28T02:59:07.892Z,11.60
2017-05-28T03:01:36.207Z,11.60
2017-05-28T03:04:04.510Z,11.60
2017-05-28T03:06:32.857Z,11.60
2017-05-28T03:09:01.159Z,11.70
2017-05-28T03:11:29.462Z,11.70
2017-05-28T03:13:57.787Z,11.70
2017-05-28T03:16:26.096Z,11.70
2017-05-28T03:18:54.419Z,11.90
2017-05-28T03:21:22.716Z,12.00
2017-05-28T03:23:51.063Z,12.00
2017-05-28T03:26:19.372Z,12.00
2017-05-28T03:28:47.675Z,12.00
2017-05-28T03:31:15.994Z,11.80
2017-05-28T03:33:44.295Z,11.70
2017-05-28T03:36:12.608Z,11.60
2017-05-28T03:38:40.903Z,11.50
2017-05-28T03:41:09.241Z,11.50
2017-05-28T03:43:37.538Z,11.60
2017-05-28T03:46:05.834Z,11.70
2017-05-28T03:48:34.158Z,11.90
2017-05-28T03:51:02.463Z,12.20
2017-05-28T03:53:30.804Z,12.40
2017-05-28T03:55:59.104Z,12.80
2017-05-28T03:58:27.416Z,13.10
2017-05-28T04:00:55.732Z,13.40
2017-05-28T04:03:24.024Z,13.60
2017-05-28T04:05:52.348Z,13.70
2017-05-28T04:08:20.656Z,13.70
2017-05-28T04:10:49.003Z,13.70
2017-05-28T04:13:17.299Z,13.80
2017-05-28T04:15:45.607Z,14.00
2017-05-28T04:18:13.929Z,14.20
2017-05-28T04:20:42.234Z,14.30
2017-05-28T04:23:10.555Z,14.40
2017-05-28T04:25:38.854Z,14.50
2017-05-28T04:28:07.196Z,14.50
2017-05-28T04:30:35.495Z,14.70
2017-05-28T04:33:03.803Z,15.10
2017-05-28T04:35:32.127Z,15.60
2017-05-28T04:38:00.423Z,15.90
2017-05-28T04:40:28.747Z,16.30
2017-05-28T04:42:57.044Z,16.70
2017-05-28T04:45:25.392Z,17.10
2017-05-28T04:47:53.695Z,17.50
2017-05-28T04:50:21.995Z,17.90
2017-05-28T04:52:50.316Z,18.40
2017-05-28T04:55:18.643Z,18.90
2017-05-28T04:57:46.983Z,19.40
2017-05-28T05:00:15.281Z,20.00
2017-05-28T05:02:43.621Z,20.60
2017-05-28T05:05:11.920Z,21.30
2017-05-28T05:07:40.231Z,21.90
2017-05-28T05:10:08.542Z,22.30
2017-05-28T05:12:36.849Z,22.60
2017-05-28T05:15:05.171Z,23.00
2017-05-28T05:17:33.482Z,23.50
2017-05-28T05:20:01.833Z,23.80
2017-05-28T05:22:30.135Z,24.10
2017-05-28T05:24:58.474Z,24.60
2017-05-28T05:27:26.802Z,25.30
2017-05-28T05:29:55.111Z,25.70
2017-05-28T05:32:23.451Z,26.10
2017-05-28T05:34:51.749Z,26.30
2017-05-28T05:37:20.055Z,26.50
2017-05-28T05:39:48.392Z,26.80
2017-05-28T05:42:16.697Z,27.00
2017-05-28T05:44:45.023Z,27.10
2017-05-28T05:47:13.323Z,27.20
2017-05-28T05:49:41.660Z,27.50
2017-05-28T05:52:09.973Z,27.80
2017-05-28T05:54:38.271Z,28.20
2017-05-28T05:57:06.610Z,28.80
2017-05-28T05:59:34.138Z,28.70
2017-05-28T06:02:02.458Z,30.00
2017-05-28T06:04:30.755Z,30.50
2017-05-28T06:06:59.107Z,31.00
2017-05-28T06:09:27.416Z,31.40
2017-05-28T06:11:55.729Z,31.10
2017-05-28T06:14:24.120Z,30.90
2017-05-28T06:16:52.444Z,30.50
2017-05-28T06:19:20.796Z,30.40
2017-05-28T06:21:49.123Z,30.30
2017-05-28T06:24:17.487Z,30.30
2017-05-28T06:26:45.799Z,29.90
2017-05-28T06:29:14.131Z,30.10
2017-05-28T06:31:42.468Z,30.50
2017-05-28T06:34:10.784Z,30.70
2017-05-28T06:36:39.116Z,31.10
2017-05-28T06:39:07.430Z,31.70
2017-05-28T06:41:35.764Z,32.20
2017-05-28T06:44:04.099Z,32.50
2017-05-28T06:46:32.424Z,32.30
2017-05-28T06:49:00.752Z,31.80
2017-05-28T06:51:29.081Z,31.40
2017-05-28T06:53:57.403Z,31.30
2017-05-28T06:56:25.744Z,31.60
2017-05-28T06:58:54.052Z,32.00
2017-05-28T07:01:22.420Z,31.70
2017-05-28T07:03:50.761Z,31.90
2017-05-28T07:06:19.071Z,32.20
2017-05-28T07:08:47.399Z,32.10
2017-05-28T07:11:15.707Z,31.80
2017-05-28T07:13:44.019Z,31.80
2017-05-28T07:16:12.316Z,31.90
2017-05-28T07:18:40.660Z,32.10
2017-05-28T07:21:08.963Z,32.30
2017-05-28T07:23:37.263Z,32.00
2017-05-28T07:26:05.584Z,31.50
2017-05-28T07:28:33.893Z,30.90
2017-05-28T07:31:02.216Z,30.70
2017-05-28T07:33:30.520Z,30.50
2017-05-28T07:35:58.860Z,30.40
2017-05-28T07:38:27.164Z,30.10
2017-05-28T07:40:55.465Z,30.10
2017-05-28T07:43:23.785Z,30.00
2017-05-28T07:45:52.089Z,30.30
2017-05-28T07:48:20.435Z,30.50
2017-05-28T07:50:48.732Z,30.80
2017-05-28T07:53:17.047Z,30.70
2017-05-28T07:55:45.363Z,30.50
2017-05-28T07:58:13.660Z,30.40
2017-05-28T08:00:42.023Z,30.20
2017-05-28T08:03:10.329Z,30.00
2017-05-28T08:05:38.662Z,29.90
2017-05-28T08:08:06.965Z,30.00
2017-05-28T08:10:35.269Z,30.30
2017-05-28T08:13:03.600Z,30.60
2017-05-28T08:15:31.911Z,31.20
2017-05-28T08:18:00.244Z,31.50
2017-05-28T08:20:28.546Z,31.50
2017-05-28T08:22:56.957Z,31.60
2017-05-28T08:25:25.268Z,31.90
2017-05-28T08:27:53.576Z,31.90
2017-05-28T08:30:21.895Z,32.20
2017-05-28T08:32:50.228Z,32.30
2017-05-28T08:35:18.552Z,32.40
2017-05-28T08:37:46.882Z,32.60
2017-05-28T08:40:15.222Z,32.30
2017-05-28T08:42:43.541Z,32.00
2017-05-28T08:45:11.853Z,31.90
2017-05-28T08:47:40.187Z,32.10
2017-05-28T08:50:08.501Z,31.90
2017-05-28T08:52:36.855Z,31.70
2017-05-28T08:55:05.180Z,32.10
2017-05-28T08:57:33.535Z,32.40
2017-05-28T09:00:01.839Z,32.90
2017-05-28T09:02:30.202Z,33.80
2017-05-28T09:04:58.532Z,34.50
2017-05-28T09:07:26.853Z,34.70
2017-05-28T09:09:55.200Z,34.60
2017-05-28T09:12:23.539Z,34.30
2017-05-28T09:14:51.944Z,33.70
2017-05-28T09:17:20.242Z,33.20
2017-05-28T09:19:48.559Z,32.90
2017-05-28T09:22:16.897Z,32.70
2017-05-28T09:24:45.218Z,32.20
2017-05-28T09:27:13.552Z,31.90
2017-05-28T09:29:41.864Z,31.90
2017-05-28T09:32:10.247Z,32.00
2017-05-28T09:34:38.565Z,32.00
2017-05-28T09:37:06.897Z,31.90
2017-05-28T09:39:35.664Z,32.00
2017-05-28T09:42:04.019Z,32.20
2017-05-28T09:44:32.348Z,32.50
2017-05-28T09:47:00.658Z,32.70
2017-05-28T09:49:29.008Z,32.90
2017-05-28T09:51:57.320Z,33.40
2017-05-28T09:54:25.685Z,33.70
2017-05-28T09:56:54.032Z,33.70
2017-05-28T09:59:22.354Z,33.60
2017-05-28T10:01:50.708Z,33.30
2017-05-28T10:04:19.030Z,33.30
2017-05-28T10:06:47.388Z,33.40
2017-05-28T10:09:15.709Z,33.50
2017-05-28T10:11:44.020Z,33.90
2017-05-28T10:14:12.353Z,33.90
2017-05-28T10:16:40.659Z,34.00
2017-05-28T10:19:08.998Z,34.10
2017-05-28T10:21:37.305Z,34.00
2017-05-28T10:24:05.650Z,33.60
2017-05-28T10:26:33.959Z,33.50
2017-05-28T10:29:02.307Z,33.70
2017-05-28T10:31:30.641Z,33.90
2017-05-28T10:33:58.951Z,34.10
2017-05-28T10:36:27.281Z,34.30
2017-05-28T10:38:55.592Z,34.30
2017-05-28T10:41:23.931Z,34.10
2017-05-28T10:43:52.234Z,34.20
2017-05-28T10:46:20.540Z,34.10
2017-05-28T10:48:48.870Z,33.70
2017-05-28T10:51:17.171Z,33.70
2017-05-28T10:53:45.522Z,33.90
2017-05-28T10:56:13.846Z,34.10
2017-05-28T10:58:42.208Z,34.20
2017-05-28T11:01:09.754Z,34.10
2017-05-28T11:03:38.061Z,34.10
2017-05-28T11:06:05.642Z,34.10
2017-05-28T11:08:33.965Z,33.50
2017-05-28T11:11:02.292Z,32.90
2017-05-28T11:13:30.619Z,32.70
2017-05-28T11:15:58.990Z,32.90
2017-05-28T11:18:27.319Z,33.10
2017-05-28T11:20:55.647Z,33.40
2017-05-28T11:23:27.182Z,33.40
2017-05-28T11:25:55.495Z,33.40
2017-05-28T11:28:23.832Z,33.70
2017-05-28T11:30:52.135Z,33.60
2017-05-28T11:33:20.496Z,33.90
2017-05-28T11:35:48.832Z,34.20
2017-05-28T11:38:17.160Z,34.30
2017-05-28T11:40:45.488Z,34.40
2017-05-28T11:43:13.797Z,34.70
2017-05-28T11:45:42.188Z,34.70
2017-05-28T11:48:10.499Z,34.50
2017-05-28T11:50:38.856Z,34.30
2017-05-28T11:53:07.169Z,34.00
2017-05-28T11:55:35.493Z,34.10
2017-05-28T11:58:03.844Z,34.00
2017-05-28T12:00:32.152Z,34.00
2017-05-28T12:03:00.504Z,34.10
2017-05-28T12:05:28.808Z,34.30
2017-05-28T12:07:57.143Z,34.70
2017-05-28T12:10:25.473Z,34.80
2017-05-28T12:12:53.787Z,34.90
2017-05-28T12:15:22.158Z,34.70
2017-05-28T12:17:50.468Z,34.50
2017-05-28T12:20:18.791Z,34.20
2017-05-28T12:22:47.132Z,34.10
2017-05-28T12:25:15.448Z,34.10
2017-05-28T12:27:43.797Z,33.70
2017-05-28T12:30:12.132Z,33.60
2017-05-28T12:32:40.453Z,34.10
2017-05-28T12:35:08.787Z,34.20
2017-05-28T12:37:37.093Z,34.00
2017-05-28T12:40:05.443Z,33.80
2017-05-28T12:42:33.771Z,33.50
2017-05-28T12:45:02.098Z,33.50
2017-05-28T12:47:30.438Z,33.50
2017-05-28T12:49:58.782Z,33.70
2017-05-28T12:52:27.132Z,34.20
2017-05-28T12:54:55.467Z,34.30
2017-05-28T12:57:23.795Z,34.20
2017-05-28T12:59:52.138Z,34.10
2017-05-28T13:02:20.462Z,34.10
2017-05-28T13:04:48.808Z,33.80
2017-05-28T13:07:17.136Z,34.10
2017-05-28T13:09:45.447Z,34.50
2017-05-28T13:12:13.782Z,34.70
2017-05-28T13:14:42.105Z,34.90
2017-05-28T13:17:10.476Z,35.10
2017-05-28T13:19:38.793Z,34.70
2017-05-28T13:22:07.102Z,34.20
2017-05-28T13:24:35.443Z,34.00
2017-05-28T13:27:03.752Z,34.00
2017-05-28T13:29:32.106Z,33.90
2017-05-28T13:32:00.415Z,33.90
2017-05-28T13:34:28.734Z,34.20
2017-05-28T13:36:57.072Z,34.20
2017-05-28T13:39:25.387Z,34.10
2017-05-28T13:41:53.760Z,34.20
2017-05-28T13:44:22.077Z,34.40
2017-05-28T13:46:50.388Z,34.30
2017-05-28T13:49:18.719Z,33.90
2017-05-28T13:51:47.036Z,33.60
2017-05-28T13:54:15.388Z,33.50
2017-05-28T13:56:43.708Z,33.50
2017-05-28T13:59:12.019Z,33.50
2017-05-28T14:01:40.348Z,33.70
2017-05-28T14:04:07.902Z,33.70
2017-05-28T14:06:36.254Z,34.00
2017-05-28T14:09:04.602Z,34.30
2017-05-28T14:11:32.927Z,34.80
2017-05-28T14:14:01.289Z,35.00
2017-05-28T14:16:29.600Z,35.00
2017-05-28T14:18:57.949Z,34.80
2017-05-28T14:21:26.264Z,34.80
2017-05-28T14:23:54.581Z,34.80
2017-05-28T14:26:22.911Z,34.80
2017-05-28T14:28:51.251Z,34.50
2017-05-28T14:31:19.591Z,34.00
2017-05-28T14:33:47.918Z,33.50
2017-05-28T14:36:16.253Z,33.10
2017-05-28T14:38:44.638Z,33.00
2017-05-28T14:41:12.956Z,32.80
2017-05-28T14:43:41.316Z,32.80
2017-05-28T14:46:09.622Z,32.50
2017-05-28T14:48:37.932Z,32.30
2017-05-28T14:51:06.257Z,32.60
2017-05-28T14:53:34.556Z,32.80
2017-05-28T14:56:02.903Z,33.10
2017-05-28T14:58:31.217Z,33.10
2017-05-28T15:00:59.523Z,33.00
2017-05-28T15:03:27.863Z,32.80
2017-05-28T15:05:56.177Z,32.60
2017-05-28T15:08:24.519Z,32.40
2017-05-28T15:10:52.828Z,32.20
2017-05-28T15:13:21.149Z,32.00
2017-05-28T15:15:49.471Z,31.90
2017-05-28T15:18:17.892Z,31.90
2017-05-28T15:20:46.248Z,31.90
2017-05-28T15:23:14.560Z,32.00
2017-05-28T15:25:42.863Z,31.90
2017-05-28T15:28:11.183Z,31.80
2017-05-28T15:30:39.542Z,31.70
2017-05-28T15:33:07.888Z,31.40
2017-05-28T15:35:36.215Z,31.30
2017-05-28T15:38:04.563Z,31.00
2017-05-28T15:40:32.887Z,30.60
2017-05-28T15:43:01.199Z,30.40
2017-05-28T15:45:29.543Z,30.10
2017-05-28T15:47:57.906Z,30.00
2017-05-28T15:50:26.216Z,30.00
2017-05-28T15:52:54.551Z,29.90
2017-05-28T15:55:22.883Z,29.90
2017-05-28T15:57:51.232Z,29.90
2017-05-28T16:00:19.567Z,29.90
2017-05-28T16:02:47.885Z,30.00
2017-05-28T16:05:16.219Z,30.10
2017-05-28T16:07:44.533Z,30.10
2017-05-28T16:10:12.868Z,30.10
2017-05-28T16:12:41.176Z,30.00
2017-05-28T16:15:09.495Z,30.00
2017-05-28T16:17:37.827Z,30.20
2017-05-28T16:20:06.139Z,30.30
2017-05-28T16:22:34.510Z,30.50
2017-05-28T16:25:02.828Z,30.70
2017-05-28T16:27:31.127Z,30.90
2017-05-28T16:29:59.463Z,30.90
2017-05-28T16:32:27.789Z,30.90
2017-05-28T16:34:56.131Z,30.80
2017-05-28T16:37:24.437Z,30.70
2017-05-28T16:39:52.753Z,30.70
2017-05-28T16:42:21.082Z,30.50
2017-05-28T16:44:49.395Z,30.30
2017-05-28T16:47:17.739Z,30.30
2017-05-28T16:49:46.052Z,30.20
2017-05-28T16:52:14.427Z,30.00
2017-05-28T16:54:42.751Z,29.80
2017-05-28T16:57:11.051Z,29.80
2017-05-28T16:59:39.411Z,29.70
2017-05-28T17:02:07.706Z,29.70
2017-05-28T17:04:36.016Z,29.70
2017-05-28T17:07:04.335Z,29.60
2017-05-28T17:09:32.660Z,29.40
2017-05-28T17:12:00.981Z,29.10
2017-05-28T17:14:29.280Z,29.00
2017-05-28T17:16:57.618Z,28.70
2017-05-28T17:19:25.913Z,28.40
2017-05-28T17:21:54.229Z,28.10
2017-05-28T17:24:22.556Z,27.80
2017-05-28T17:26:50.855Z,27.70
2017-05-28T17:29:19.187Z,27.70
2017-05-28T17:31:47.498Z,27.60
2017-05-28T17:34:15.853Z,27.50
2017-05-28T17:36:44.167Z,27.40
2017-05-28T17:39:12.475Z,27.30
2017-05-28T17:41:40.819Z,27.20
2017-05-28T17:44:09.136Z,27.10
2017-05-28T17:46:37.461Z,27.00
2017-05-28T17:49:05.774Z,26.80
2017-05-28T17:51:34.124Z,26.60
2017-05-28T17:54:02.438Z,26.30
2017-05-28T17:56:30.743Z,26.30
2017-05-28T17:58:59.084Z,26.10
2017-05-28T18:01:27.391Z,26.00
2017-05-28T18:03:55.727Z,25.90
2017-05-28T18:06:24.097Z,25.90
2017-05-28T18:08:52.419Z,25.80
2017-05-28T18:11:20.724Z,25.70
2017-05-28T18:13:49.062Z,25.50
2017-05-28T18:16:17.364Z,25.30
2017-05-28T18:18:45.673Z,25.20
2017-05-28T18:21:14.003Z,24.90
2017-05-28T18:23:42.325Z,24.70
2017-05-28T18:26:10.661Z,24.60
2017-05-28T18:28:38.972Z,24.60
2017-05-28T18:31:07.311Z,24.50
2017-05-28T18:33:35.619Z,24.50
2017-05-28T18:36:03.949Z,24.30
2017-05-28T18:38:32.298Z,24.10
2017-05-28T18:41:00.603Z,23.90
2017-05-28T18:43:28.927Z,23.60
2017-05-28T18:45:57.233Z,23.50
2017-05-28T18:48:25.606Z,23.40
2017-05-28T18:50:53.926Z,23.40
2017-05-28T18:53:22.228Z,23.30
2017-05-28T18:55:50.566Z,23.20
2017-05-28T18:58:18.877Z,23.10
2017-05-28T19:00:47.206Z,22.90
2017-05-28T19:03:15.547Z,22.70
2017-05-28T19:05:43.871Z,22.60
2017-05-28T19:08:12.206Z,22.60
2017-05-28T19:10:40.516Z,22.60
2017-05-28T19:13:08.889Z,22.50
2017-05-28T19:15:37.194Z,22.50
2017-05-28T19:18:05.514Z,22.50
2017-05-28T19:20:33.839Z,22.30
2017-05-28T19:23:02.151Z,22.00
2017-05-28T19:25:30.507Z,21.80
2017-05-28T19:27:58.811Z,21.60
2017-05-28T19:30:27.140Z,21.60
2017-05-28T19:32:55.474Z,21.60
2017-05-28T19:35:23.777Z,21.60
2017-05-28T19:37:52.098Z,21.50
2017-05-28T19:40:20.402Z,21.30
2017-05-28T19:42:48.740Z,21.30
2017-05-28T19:45:17.039Z,21.20
2017-05-28T19:47:45.336Z,21.30
2017-05-28T19:50:13.654Z,21.40
2017-05-28T19:52:41.956Z,21.50
2017-05-28T19:55:10.276Z,21.50
2017-05-28T19:57:38.584Z,21.50
2017-05-28T20:00:06.906Z,21.20
2017-05-28T20:02:35.199Z,21.00
2017-05-28T20:05:03.497Z,20.90
2017-05-28T20:07:31.836Z,20.90
2017-05-28T20:10:00.131Z,21.00
2017-05-28T20:12:28.448Z,21.00
2017-05-28T20:14:56.747Z,21.10
2017-05-28T20:17:25.068Z,21.10
2017-05-28T20:19:53.373Z,21.10
2017-05-28T20:22:21.670Z,21.10
2017-05-28T20:24:49.987Z,21.00
2017-05-28T20:27:18.287Z,21.00
2017-05-28T20:29:46.609Z,21.00
2017-05-28T20:32:14.911Z,21.00
2017-05-28T20:34:43.254Z,21.00
2017-05-28T20:37:11.551Z,21.00
2017-05-28T20:39:39.848Z,20.90
2017-05-28T20:42:08.173Z,20.90
2017-05-28T20:44:36.471Z,20.90
2017-05-28T20:47:04.794Z,20.80
2017-05-28T20:49:33.095Z,20.80
2017-05-28T20:52:01.438Z,20.60
2017-05-28T20:54:29.738Z,20.30
2017-05-28T20:56:58.035Z,20.00
2017-05-28T20:59:26.355Z,19.90
2017-05-28T21:01:54.660Z,19.90
2017-05-28T21:04:22.976Z,19.90
2017-05-28T21:06:51.276Z,20.00
2017-05-28T21:09:19.610Z,20.00
2017-05-28T21:11:47.912Z,20.00
2017-05-28T21:14:16.214Z,20.10
2017-05-28T21:16:44.534Z,20.10
2017-05-28T21:19:12.831Z,20.00
2017-05-28T21:21:41.339Z,19.80
2017-05-28T21:24:09.636Z,19.60
2017-05-28T21:26:37.978Z,19.50
2017-05-28T21:29:06.278Z,19.30
2017-05-28T21:31:34.575Z,19.30
2017-05-28T21:34:02.898Z,19.40
2017-05-28T21:36:31.190Z,19.50
2017-05-28T21:38:59.517Z,19.50
2017-05-28T21:41:27.824Z,19.60
2017-05-28T21:43:56.155Z,19.60
2017-05-28T21:46:24.459Z,19.50
2017-05-28T21:48:52.761Z,19.50
2017-05-28T21:51:21.079Z,19.50
2017-05-28T21:53:49.381Z,19.50
2017-05-28T21:56:17.700Z,19.50
2017-05-28T21:58:45.997Z,19.40
2017-05-28T22:01:14.318Z,19.20
2017-05-28T22:03:42.616Z,19.00
2017-05-28T22:06:10.924Z,18.80
2017-05-28T22:08:39.307Z,18.60
2017-05-28T22:11:07.588Z,18.40
2017-05-28T22:13:35.907Z,18.40
2017-05-28T22:16:04.202Z,18.40
2017-05-28T22:18:32.523Z,18.50
2017-05-28T22:21:00.826Z,18.50
2017-05-28T22:23:29.128Z,18.30
2017-05-28T22:25:57.447Z,18.30
2017-05-28T22:28:25.750Z,18.20
2017-05-28T22:30:54.063Z,18.10
2017-05-28T22:33:22.361Z,17.90
2017-05-28T22:35:50.685Z,17.70
2017-05-28T22:38:19.000Z,17.60
2017-05-28T22:40:47.291Z,17.50
2017-05-28T22:43:15.610Z,17.40
2017-05-28T22:45:43.911Z,17.50
2017-05-28T22:48:12.234Z,17.50
2017-05-28T22:50:40.536Z,17.50
2017-05-28T22:53:08.828Z,17.60
2017-05-28T22:55:37.147Z,17.60
2017-05-28T22:58:05.447Z,17.60
2017-05-28T23:00:33.791Z,17.60
2017-05-28T23:03:02.104Z,17.50
2017-05-28T23:05:30.398Z,17.30
2017-05-28T23:07:58.712Z,17.10
2017-05-28T23:10:27.013Z,16.90
2017-05-28T23:12:55.347Z,16.90
2017-05-28T23:15:23.642Z,16.90
2017-05-28T23:17:51.942Z,17.00
2017-05-28T23:20:20.264Z,17.10
2017-05-28T23:22:48.586Z,17.10
2017-05-28T23:25:16.900Z,17.20
2017-05-28T23:27:45.200Z,17.20
2017-05-28T23:30:13.534Z,17.20
2017-05-28T23:32:41.828Z,16.80
2017-05-28T23:35:10.956Z,16.60
2017-05-28T23:37:39.280Z,16.60
2017-05-28T23:40:07.572Z,16.70
2017-05-28T23:42:35.886Z,16.60
2017-05-28T23:45:04.188Z,16.60
2017-05-28T23:47:32.576Z,16.50
2017-05-28T23:50:00.871Z,16.40
2017-05-28T23:52:29.177Z,16.20
2017-05-28T23:54:57.490Z,16.10
2017-05-28T23:57:25.791Z,16.00
2017-05-28T23:59:54.108Z,16.10
